Flight Track Log - Related Links

Times and Time Zones

All times are in EDT time to prevent confusion due to time zone crossing. See the UAL252 flight status page for this flight to view local times or setup timezone preferences in your user account.

Time Position Orientation Groundspeed Altitude Reporting Facility
EDT Latitude Longitude Course Direction KTS MPH feet Rate Location/Type
Mon 06:44:14 AM 42.3500 -71.0167 280° West 157 181 800  Level KA90
Mon 06:44:58 AM 42.3167 -71.0000 160° South 197 227 1,800 1,846 Climbing KA90
Mon 06:45:58 AM 42.3167 -70.9000 90° East 253 291 4,000 2,443 Climbing KA90
Mon 06:46:00 AM 42.3355 -70.7238 172° South  Level FlightAware Approximate
Mon 06:47:00 AM 42.2489 -70.7933 228° Southwest  Level FlightAware Approximate
Mon 06:47:18 AM 42.3278 -70.7692 83° East 287 330 7,500  Level Boston Center
Mon 06:48:00 AM 42.1888 -70.9206 240° Southwest  Level FlightAware Approximate
Mon 06:48:18 AM 42.2525 -70.7572 173° South 189 217 10,100  Level Boston Center
Mon 06:49:00 AM 42.1961 -71.0687 280° West  Level FlightAware Approximate
Mon 06:49:18 AM 42.2314 -70.8783 257° West 166 191 12,100  Level Boston Center
Mon 06:50:18 AM 42.2286 -70.9933 268° West 264 304 14,000 893 Climbing Boston Center
Mon 06:51:19 AM 42.2281 -71.1222 270° West 330 380 13,900 150 Descending Boston Center
Mon 06:52:18 AM 42.2253 -71.2458 268° West 341 392 14,300 1,311 Climbing Boston Center
Mon 06:53:18 AM 42.2203 -71.3775 267° West 354 407 16,500 2,200 Climbing Boston Center
Mon 06:54:18 AM 42.2153 -71.5067 267° West 354 407 18,700 2,000 Climbing Boston Center
Mon 06:55:18 AM 42.2100 -71.6469 267° West 360 414 20,500 1,700 Climbing Boston Center
Mon 06:56:18 AM 42.2025 -71.7900 266° West 370 426 22,100 1,250 Climbing Boston Center
Mon 06:57:18 AM 42.1803 -71.9275 258° West 376 433 23,000 450 Climbing Boston Center
Mon 06:58:18 AM 42.1517 -72.0706 255° West 381 438 23,000 250 Level Boston Center
Mon 06:59:18 AM 42.1250 -72.2106 256° West 386 444 23,500 950 Climbing Boston Center
Mon 07:00:18 AM 42.0981 -72.3506 256° West 393 452 24,900 1,400 Climbing Boston Center
Mon 07:01:18 AM 42.0689 -72.4989 255° West 398 458 26,300 1,250 Climbing Boston Center
Mon 07:02:18 AM 42.0397 -72.6469 255° West 404 465 27,400 1,200 Climbing Boston Center
Mon 07:03:18 AM 42.0100 -72.8006 255° West 416 479 28,700 1,250 Climbing Boston Center
Mon 07:04:18 AM 41.9783 -72.9567 255° West 422 486 29,900 1,190 Climbing Boston Center
Mon 07:05:19 AM 41.9108 -73.0983 237° Southwest 437 503 31,100 1,350 Climbing Boston Center
Mon 07:06:18 AM 41.8122 -73.1922 215° Southwest 429 494 32,600 1,361 Climbing Boston Center
Mon 07:07:18 AM 41.7117 -73.2744 211° Southwest 424 488 33,800 1,200 Climbing Boston Center
Mon 07:08:18 AM 41.6211 -73.3758 220° Southwest 429 494 35,000 790 Climbing Boston Center
Mon 07:10:05 AM 41.4992 -73.5661 229° Southwest 418 481 36,000 364 Climbing New York Center
Mon 07:11:03 AM 41.4214 -73.6844 229° Southwest 424 488 36,000 -50 Level New York Center
Mon 07:12:06 AM 41.3456 -73.8000 229° Southwest 429 494 35,900 -50 Descending New York Center
Mon 07:13:03 AM 41.2611 -73.9286 229° Southwest 424 488 35,900  Level New York Center
Mon 07:14:04 AM 41.1831 -74.0406 227° Southwest 424 488 35,900 49 Level New York Center
Mon 07:15:05 AM 41.1111 -74.1556 230° Southwest 424 488 36,000 50 Climbing New York Center
Mon 07:16:03 AM 41.0347 -74.2672 228° Southwest 424 488 36,000  Level New York Center
Mon 07:17:04 AM 40.9606 -74.3844 230° Southwest 424 488 36,000  Level New York Center
Mon 07:18:04 AM 40.8900 -74.5042 232° Southwest 418 481 36,000  Level New York Center
Mon 07:19:03 AM 40.8222 -74.6100 230° Southwest 418 481 36,000  Level New York Center
Mon 07:20:05 AM 40.7517 -74.7239 231° Southwest 418 481 36,000 -49 Level New York Center
Mon 07:21:06 AM 40.6789 -74.8400 230° Southwest 418 481 35,900 -50 Descending New York Center
Mon 07:22:04 AM 40.6064 -74.9533 230° Southwest 418 481 35,900  Level New York Center
Mon 07:23:05 AM 40.5375 -75.0667 231° Southwest 412 474 35,900 50 Level New York Center
Mon 07:24:03 AM 40.4644 -75.1847 231° Southwest 412 474 36,000 50 Climbing New York Center
Mon 07:25:04 AM 40.3914 -75.2972 230° Southwest 412 474 36,000  Level New York Center
Mon 07:26:04 AM 40.3225 -75.4072 231° Southwest 412 474 36,000  Level New York Center
Mon 07:27:05 AM 40.2469 -75.5244 230° Southwest 412 474 36,000 -50 Level New York Center
Mon 07:28:05 AM 40.1836 -75.6450 236° Southwest 412 474 35,900 -50 Descending New York Center
Mon 07:29:04 AM 40.1225 -75.7656 236° Southwest 407 468 35,900  Level New York Center
Mon 07:30:04 AM 40.0608 -75.8914 237° Southwest 407 468 35,900 50 Level New York Center
Mon 07:31:05 AM 39.9989 -76.0169 237° Southwest 413 475 36,000 50 Climbing New York Center
Mon 07:32:03 AM 39.9328 -76.1419 235° Southwest 419 482 36,000  Level New York Center
Mon 07:33:04 AM 39.8600 -76.2744 234° Southwest 424 488 36,000  Level New York Center
Mon 07:34:05 AM 39.7961 -76.3936 235° Southwest 424 488 36,000  Level New York Center
Mon 07:35:03 AM 39.7336 -76.5183 237° Southwest 419 482 36,000  Level New York Center
Mon 07:36:04 AM 39.6694 -76.6397 236° Southwest 419 482 36,000  Level New York Center
Mon 07:37:04 AM 39.6089 -76.7614 237° Southwest 419 482 36,000  Level New York Center
Mon 07:38:05 AM 39.5467 -76.8775 235° Southwest 414 476 36,000  Level New York Center
Mon 07:39:27 AM 39.4511 -77.0214 229° Southwest 390 449 36,000  Level Washington Center
Mon 07:40:28 AM 39.3686 -77.1111 220° Southwest 380 437 36,000  Level Washington Center
Mon 07:41:29 AM 39.2800 -77.2031 219° Southwest 392 451 36,000  Level Washington Center
Mon 07:42:29 AM 39.1953 -77.2922 219° Southwest 398 458 36,000  Level Washington Center
Mon 07:43:29 AM 39.1086 -77.3839 219° Southwest 404 465 36,000  Level Washington Center
Mon 07:44:26 AM 39.0217 -77.4725 218° Southwest 404 465 36,000  Level Washington Center
Mon 07:45:27 AM 38.9325 -77.5664 219° Southwest 409 471 36,000  Level Washington Center
Mon 07:46:27 AM 38.8478 -77.6572 220° Southwest 409 471 36,000  Level Washington Center
Mon 07:47:29 AM 38.7631 -77.7375 216° Southwest 414 476 36,000  Level Washington Center
Mon 07:48:27 AM 38.6736 -77.8306 219° Southwest 419 482 36,000  Level Washington Center
Mon 07:49:27 AM 38.6008 -77.9319 227° Southwest 404 465 36,000  Level Washington Center
Mon 07:50:40 AM 38.5339 -78.0494 234° Southwest 404 465 36,000  Level Washington Center
Mon 07:51:39 AM 38.4539 -78.1872 233° Southwest 404 465 36,000  Level Washington Center
Mon 07:52:39 AM 38.3844 -78.3014 232° Southwest 404 465 36,000  Level Washington Center
Mon 07:53:41 AM 38.3172 -78.4156 233° Southwest 404 465 36,000  Level Washington Center
Mon 07:54:39 AM 38.2500 -78.5319 234° Southwest 404 465 36,000  Level Washington Center
Mon 07:55:39 AM 38.1844 -78.6456 234° Southwest 398 458 36,000  Level Washington Center
Mon 07:56:40 AM 38.1103 -78.7692 233° Southwest 406 467 36,000  Level Washington Center
Mon 07:57:41 AM 38.0428 -78.8822 233° Southwest 406 467 36,000  Level Washington Center
Mon 07:58:39 AM 37.9728 -78.9953 232° Southwest 406 467 36,000  Level Washington Center
Mon 07:59:40 AM 37.9092 -79.1003 233° Southwest 406 467 36,000  Level Washington Center
Mon 08:00:52 AM 37.8494 -79.2211 238° Southwest 411 473 36,000  Level Washington Center
Mon 08:01:54 AM 37.7758 -79.3700 238° Southwest 417 480 36,000 353 Level Washington Center
Mon 08:02:51 AM 37.7047 -79.5056 236° Southwest 422 486 36,700 864 Climbing Washington Center
Mon 08:03:52 AM 37.6422 -79.6281 237° Southwest 427 491 37,700 639 Climbing Washington Center
Mon 08:04:53 AM 37.5864 -79.7406 238° Southwest 420 483 38,000 149 Climbing Washington Center
Mon 08:05:53 AM 37.5256 -79.8708 240° Southwest 430 495 38,000  Level Washington Center
Mon 08:06:52 AM 37.4628 -79.9875 236° Southwest 430 495 38,000  Level Washington Center
Mon 08:09:54 AM 37.2689 -80.3617 237° Southwest 430 495 38,000  Level Atlanta Center
Mon 08:10:54 AM 37.2036 -80.4819 236° Southwest 430 495 38,000  Level Atlanta Center
Mon 08:11:54 AM 37.1425 -80.6047 238° Southwest 435 501 38,000  Level Atlanta Center
Mon 08:12:54 AM 37.0733 -80.7428 238° Southwest 430 495 38,000  Level Atlanta Center
Mon 08:13:54 AM 37.0267 -80.8722 246° West 419 482 38,000  Level Atlanta Center
Mon 08:14:54 AM 36.9800 -81.0039 246° West 413 475 38,000  Level Atlanta Center
Mon 08:15:54 AM 36.9353 -81.1356 247° West 413 475 38,000  Level Atlanta Center
Mon 08:16:54 AM 36.8922 -81.2539 246° West 413 475 38,000  Level Atlanta Center
Mon 08:17:54 AM 36.8428 -81.3853 245° Southwest 413 475 38,000  Level Atlanta Center
Mon 08:18:54 AM 36.7956 -81.5164 246° West 418 481 38,000  Level Atlanta Center
Mon 08:19:54 AM 36.7503 -81.6528 248° West 423 487 38,000  Level Atlanta Center
Mon 08:20:54 AM 36.7028 -81.7861 246° West 423 487 38,000  Level Atlanta Center
Mon 08:21:54 AM 36.6447 -81.9172 241° Southwest 423 487 38,000  Level Atlanta Center
Mon 08:22:54 AM 36.5758 -82.0378 235° Southwest 434 499 38,000  Level Atlanta Center
Mon 08:23:54 AM 36.5089 -82.1583 235° Southwest 434 499 38,000  Level Atlanta Center
Mon 08:24:54 AM 36.4419 -82.2786 235° Southwest 434 499 38,000  Level Atlanta Center
Mon 08:25:54 AM 36.3728 -82.3989 234° Southwest 429 494 38,000  Level Atlanta Center
Mon 08:26:54 AM 36.3056 -82.5214 236° Southwest 429 494 38,000  Level Atlanta Center
Mon 08:27:54 AM 36.2358 -82.6436 235° Southwest 429 494 38,000  Level Atlanta Center
Mon 08:28:54 AM 36.1581 -82.7761 234° Southwest 434 499 38,000  Level Atlanta Center
Mon 08:29:54 AM 36.0906 -82.9003 236° Southwest 434 499 38,000  Level Atlanta Center
Mon 08:30:54 AM 36.0186 -83.0247 234° Southwest 434 499 38,000  Level Atlanta Center
Mon 08:31:54 AM 35.9486 -83.1436 234° Southwest 434 499 38,000  Level Atlanta Center
Mon 08:32:54 AM 35.8806 -83.2672 236° Southwest 439 505 38,000  Level Atlanta Center
Mon 08:33:54 AM 35.8083 -83.3908 234° Southwest 439 505 38,000  Level Atlanta Center
Mon 08:34:54 AM 35.7381 -83.5142 235° Southwest 445 512 38,000  Level Atlanta Center
Mon 08:35:54 AM 35.6656 -83.6350 234° Southwest 445 512 38,000  Level Atlanta Center
Mon 08:36:54 AM 35.5928 -83.7578 234° Southwest 450 518 38,000  Level Atlanta Center
Mon 08:37:54 AM 35.5219 -83.8831 235° Southwest 450 518 38,000  Level Atlanta Center
Mon 08:38:54 AM 35.4575 -83.9903 234° Southwest 450 518 38,000  Level Atlanta Center
Mon 08:39:54 AM 35.3867 -84.1100 234° Southwest 445 512 38,000  Level Atlanta Center
Mon 08:40:54 AM 35.3156 -84.2347 235° Southwest 445 512 38,000  Level Atlanta Center
Mon 08:41:54 AM 35.2422 -84.3514 232° Southwest 445 512 38,000  Level Atlanta Center
Mon 08:42:54 AM 35.1708 -84.4733 234° Southwest 445 512 38,000  Level Atlanta Center
Mon 08:43:54 AM 35.0975 -84.5947 234° Southwest 445 512 38,000  Level Atlanta Center
Mon 08:44:54 AM 35.0278 -84.7136 234° Southwest 445 512 38,000  Level Atlanta Center
Mon 08:45:54 AM 34.9564 -84.8319 234° Southwest 445 512 38,000  Level Atlanta Center
Mon 08:46:54 AM 34.8844 -84.9503 233° Southwest 445 512 38,000  Level Atlanta Center
Mon 08:47:54 AM 34.8125 -85.0658 233° Southwest 445 512 38,000  Level Atlanta Center
Mon 08:48:54 AM 34.7406 -85.1864 234° Southwest 445 512 38,000  Level Atlanta Center
Mon 08:49:54 AM 34.6664 -85.3067 233° Southwest 445 512 38,000  Level Atlanta Center
Mon 08:50:54 AM 34.5922 -85.4242 233° Southwest 445 512 38,000  Level Atlanta Center
Mon 08:51:54 AM 34.5219 -85.5414 234° Southwest 445 512 38,000  Level Atlanta Center
Mon 08:52:54 AM 34.4514 -85.6636 235° Southwest 445 512 38,000  Level Atlanta Center
Mon 08:53:54 AM 34.3725 -85.7928 234° Southwest 445 512 38,000  Level Atlanta Center
Mon 08:54:54 AM 34.2978 -85.9019 230° Southwest 439 505 38,000  Level Atlanta Center
Mon 08:55:54 AM 34.2250 -86.0211 234° Southwest 439 505 38,000  Level Atlanta Center
Mon 08:56:54 AM 34.1542 -86.1322 232° Southwest 434 499 38,000  Level Atlanta Center
Mon 08:57:54 AM 34.0814 -86.2483 233° Southwest 434 499 38,000  Level Atlanta Center
Mon 08:58:54 AM 34.0103 -86.3644 234° Southwest 434 499 38,000  Level Atlanta Center
Mon 08:59:54 AM 33.9350 -86.4775 231° Southwest 434 499 38,000  Level Atlanta Center
Mon 09:00:54 AM 33.8617 -86.5906 232° Southwest 434 499 38,000  Level Atlanta Center
Mon 09:01:54 AM 33.7906 -86.7033 233° Southwest 434 499 38,000  Level Atlanta Center
Mon 09:02:54 AM 33.7192 -86.8158 233° Southwest 434 499 38,000  Level Atlanta Center
Mon 09:03:54 AM 33.6539 -86.9336 236° Southwest 434 499 38,000  Level Atlanta Center
Mon 09:04:54 AM 33.6028 -87.0642 245° Southwest 434 499 38,000  Level Atlanta Center
Mon 09:05:54 AM 33.5494 -87.1919 243° Southwest 429 494 38,000  Level Atlanta Center
Mon 09:06:54 AM 33.4981 -87.3219 245° Southwest 429 494 38,000  Level Atlanta Center
Mon 09:08:19 AM 33.4219 -87.5075 244° Southwest 438 504 38,000  Level Memphis Center
Mon 09:09:19 AM 33.3725 -87.6333 245° Southwest 432 497 38,000  Level Memphis Center
Mon 09:10:19 AM 33.3189 -87.7594 243° Southwest 427 491 38,000  Level Memphis Center
Mon 09:11:19 AM 33.2672 -87.8900 245° Southwest 427 491 38,000  Level Memphis Center
Mon 09:12:19 AM 33.2156 -88.0181 244° Southwest 427 491 38,000  Level Memphis Center
Mon 09:13:19 AM 33.1636 -88.1461 244° Southwest 427 491 38,000  Level Memphis Center
Mon 09:14:19 AM 33.1197 -88.2614 246° West 427 491 38,000  Level Memphis Center
Mon 09:15:19 AM 33.0656 -88.3914 244° Southwest 427 491 38,000  Level Memphis Center
Mon 09:16:19 AM 33.0131 -88.5214 244° Southwest 432 497 38,000  Level Memphis Center
Mon 09:17:19 AM 32.9567 -88.6539 243° Southwest 432 497 38,000  Level Memphis Center
Mon 09:18:19 AM 32.9019 -88.7836 243° Southwest 437 503 38,000  Level Memphis Center
Mon 09:19:19 AM 32.8472 -88.9131 243° Southwest 437 503 38,000  Level Memphis Center
Mon 09:20:19 AM 32.7922 -89.0400 243° Southwest 437 503 38,000  Level Memphis Center
Mon 09:21:19 AM 32.7372 -89.1694 243° Southwest 437 503 38,000  Level Memphis Center
Mon 09:22:19 AM 32.6819 -89.3008 243° Southwest 437 503 38,000  Level Memphis Center
Mon 09:23:19 AM 32.6267 -89.4297 243° Southwest 437 503 38,000  Level Memphis Center
Mon 09:24:20 AM 32.5711 -89.5586 243° Southwest 437 503 38,000  Level Memphis Center
Mon 09:25:19 AM 32.5156 -89.6847 242° Southwest 437 503 38,000 -655 Level Memphis Center
Mon 09:26:19 AM 32.4597 -89.8108 242° Southwest 431 496 36,700 -1,000 Descending Memphis Center
Mon 09:27:19 AM 32.4061 -89.9389 244° Southwest 432 497 36,000 -350 Descending Memphis Center
Mon 09:28:19 AM 32.3500 -90.0672 243° Southwest 432 497 36,000  Level Memphis Center
Mon 09:29:19 AM 32.2939 -90.1975 243° Southwest 432 497 36,000  Level Memphis Center
Mon 09:30:19 AM 32.2397 -90.3206 243° Southwest 432 497 36,000  Level Memphis Center
Mon 09:31:19 AM 32.1833 -90.4458 242° Southwest 432 497 36,000  Level Memphis Center
Mon 09:32:19 AM 32.1311 -90.5708 244° Southwest 427 491 36,000 -65 Level Memphis Center
Mon 09:32:51 AM 32.1047 -90.6308 243° Southwest 428 493 35,900  Descending Houston Center
Mon 09:33:53 AM 32.0497 -90.7539 242° Southwest 425 489 36,000 48 Climbing Houston Center
Mon 09:34:55 AM 31.9903 -90.8906 243° Southwest 423 487 36,000  Level Houston Center
Mon 09:35:56 AM 31.9367 -91.0142 243° Southwest 425 489 36,000  Level Houston Center
Mon 09:36:58 AM 31.8786 -91.1364 241° Southwest 427 491 36,000  Level Houston Center
Mon 09:38:00 AM 31.8242 -91.2589 242° Southwest 424 488 36,000  Level Houston Center
Mon 09:39:02 AM 31.7589 -91.4064 243° Southwest 423 487 36,000  Level Houston Center
Mon 09:40:04 AM 31.7028 -91.5294 242° Southwest 425 489 36,000  Level Houston Center
Mon 09:41:06 AM 31.6464 -91.6522 242° Southwest 427 491 36,000  Level Houston Center
Mon 09:42:07 AM 31.5914 -91.7742 242° Southwest 425 489 36,000  Level Houston Center
Mon 09:43:09 AM 31.5358 -91.8972 242° Southwest 425 489 36,000  Level Houston Center
Mon 09:44:11 AM 31.4711 -92.0358 241° Southwest 429 494 36,000 -48 Level Houston Center
Mon 09:45:13 AM 31.4147 -92.1569 241° Southwest 426 490 35,900  Descending Houston Center
Mon 09:46:15 AM 31.3594 -92.2767 242° Southwest 421 484 36,000  Climbing Houston Center
Mon 09:47:17 AM 31.3025 -92.3992 241° Southwest 426 490 35,900 -48 Descending Houston Center
Mon 09:48:19 AM 31.2453 -92.5189 241° Southwest 426 490 35,900 -1,016 Level Houston Center
Mon 09:49:21 AM 31.1808 -92.6358 237° Southwest 432 497 33,800 -2,661 Descending Houston Center
Mon 09:50:23 AM 31.1014 -92.7783 237° Southwest 438 504 30,400 -1,984 Descending Houston Center
Mon 09:51:25 AM 31.0356 -92.8953 237° Southwest 434 499 29,700 -290 Descending Houston Center
Mon 09:52:27 AM 30.9689 -93.0139 237° Southwest 439 505 29,800  Climbing Houston Center
Mon 09:53:28 AM 30.9031 -93.1308 237° Southwest 436 502 29,700 -293 Descending Houston Center
Mon 09:54:30 AM 30.8375 -93.2478 237° Southwest 434 499 29,200 -532 Descending Houston Center
Mon 09:55:32 AM 30.7575 -93.3889 237° Southwest 437 503 28,600 -581 Descending Houston Center
Mon 09:56:34 AM 30.6928 -93.5036 237° Southwest 431 496 28,000 -1,113 Descending Houston Center
Mon 09:57:36 AM 30.6275 -93.6172 236° Southwest 429 494 26,300 -1,887 Descending Houston Center
Mon 09:58:38 AM 30.5639 -93.7281 236° Southwest 422 486 24,100 -2,032 Descending Houston Center
Mon 09:59:40 AM 30.5014 -93.8364 236° Southwest 412 474 22,100 -2,191 Descending Houston Center
Mon 10:00:33 AM 30.4364 -93.9522 237° Southwest 398 458 19,900 -2,129 Descending Houston Center
Mon 10:01:44 AM 30.3692 -94.0667 236° Southwest 385 443 17,700 -1,850 Descending Houston Center
Mon 10:02:46 AM 30.3114 -94.1664 236° Southwest 374 430 15,800 -1,971 Descending Houston Center
Mon 10:04:01 AM 30.2536 -94.3064 244° Southwest 354 407 13,200 -1,839 Descending Houston Center
Mon 10:04:50 AM 30.2292 -94.3733 247° West 348 400 12,000 -1,049 Descending Houston Center
Mon 10:07:04 AM 30.1419 -94.6039 246° West 322 371 10,000 -645 Descending Houston Center
Mon 10:07:56 AM 30.1169 -94.6711 247° West 320 368 10,000 -478 Level Houston Center
Mon 10:08:57 AM 30.0886 -94.7586 250° West 295 339 9,100 -1,415 Descending Houston Center
Mon 10:09:59 AM 30.0633 -94.8625 254° West 283 326 7,100 -2,136 Descending Houston Center
Mon 10:11:09 AM 30.0392 -94.9575 254° West 269 310 4,400 -1,935 Descending Houston Center
Mon 10:12:03 AM 30.0208 -95.0275 253° West 270 311 3,100 -1,241 Descending Houston Center
Mon 10:13:05 AM 30.0019 -95.1075 255° West 265 305 2,000 -532 Descending Houston Center
Mon 10:14:07 AM 29.9936 -95.1861 263° West 252 290 2,000 -328 Level Houston Center
Mon 10:15:13 AM 29.9931 -95.2506 269° West 140 161 1,300 -677 Descending Houston Center
Mon 10:16:20 AM 29.9936 -95.3036 271° West 142 163 500 -550 Descending Houston Center
Mon 10:17:13 AM 29.9939 -95.3325 271° West 151 174 200 -340 Descending Houston Center

Login

Don't have an account? Register now (free) for customized features, flight alerts, and more!